Cut, Texas
Current Conditions -  °F | °C
As of 11:15 AM on Wednesday 26 Nov 2014 (Local Time) from KDKR Reporting Station
Clear Clear  
Wind Chill: 68°   Ceiling: Unl
Heat Index: 68°   Visibility: 10mi
Dew Point: 37°   Wind: 18mph
Humidity: 33%   Direction: 250°WSW
Pressure: 30.2"   Gusts: 26mph
Location:  31.2828°N, 95.4821°W
Report Text: KDKR 261715Z AUTO 25016G23KT 10SM CLR 20/03 A3020 RMK AO2
Loading
Personal Weather Stations






























Interactive Weather Map New forecast layout! Learn more

10-Day Weather Forecast

Advertisements
Track Severe Weather on mobile